Warning: Javascript must be enabled to use all the features on this page!


Page Loading - Please Wait...

Click to hideNews Bulletins

Peak Streamflow for the Nation

USGS 02138500 LINVILLE RIVER NEAR NEBO, NC

Burke County, North Carolina
Hydrologic Unit Code 03050101
Latitude  35°47'44", Longitude  81°53'28" NAD83
Drainage area 66.7  square miles
Gage datum 1,202.99 feet above NAVD88
Output formats
Table
Graph
Tab-separated file
peakfq (watstore) format
Reselect output format
Water
Year
Date Gage
Height
(feet)
Stream-
flow
(cfs)
1916 1916-07 11.00Bd 34,6007,Bd
1923 1923-05-29 5.50 3,380
1924 1924-01-11 6.70 5,790
1925 1924-12-08 4.70 2,180
1926 1926-01-18 4.70 2,180
1927 1926-11-16 4.95 2,350
1928 1928-08-15 7.50 8,350
1929 1929-09-26 6.80 6,000
1930 1929-10-22 5.60 3,550
1931 1931-04-22 4.40 1,810
1932 1932-05-01 4.10 1,470
1933 1932-10-16 7.10 6,910
1934 1934-03-27 4.30 1,700
1935 1935-01-09 7.90 10,000
1936 1936-01-19 4.80 2,250
1937 1936-10-16 7.99 10,400
1938 1937-10-19 5.92 4,090
1939 1939-07-09 6.07 4,380
1940 1940-08-13 11.40 39,500
1941 1941-07-07 4.96 2,420
1942 1942-09-06 6.30 4,700
1943 1942-12-30 5.32 2,900
1944 1944-09-30 4.04 1,360
1945 1945-09-17 7.27 7,420
1946 1946-01-08 5.48 3,380
1947 1947-01-20 4.15 1,620
1948 1947-11-02 5.87 4,040
1949 1949-08-28 7.98 10,400
1950 1950-09-09 6.41 5,100
1951 1950-12-07 7.42 8,030
1952 1952-02-03 6.58 5,500
1953 1953-02-21 5.66 3,820
1954 1954-01-22 5.38 3,370
1955 1955-04-14 6.65 5,680
1956 1956-04-16 4.18 1,690
1957 1957-04-05 6.68 5,750
1958 1957-12-20 5.00 2,740
1959 1959-09-30 7.10 6,900
1960 1960-02-05 4.84 2,520
1961 1961-08-24 6.22 4,720
1962 1961-12-12 4.40 1,950
1963 1963-03-12 6.09 4,460
1964 1964-08-30 6.19 4,660
1965 1964-10-16 6.67 5,340
1966 1966-02-13 7.40 6,760
1967 1966-11-02 4.68 2,420
1968 1968-06-08 5.35 3,700
1969 1968-10-19 6.17 5,530
1970 1969-11-01 6.19 5,720
1971 1970-10-30 5.62 2,200
1972 1972-06-20 8.29 17,500
1973 1973-05-28 6.71 9,010
1974 1974-04-04 5.933 4,200
1975 1975-03-14 5.353 3,320
1976 1976-05-29 7.273 7,520
1977 1977-03-13 7.073 6,840
1978 1977-11-06 9.643 17,000
1979 1979-09-21 7.363 8,000
1980 1979-11-02 5.30 3,950
1981 1981-02-11 2.98 1,380
1982 1982-02-03 4.856 2,150
1983 1983-02-02 7.84 8,440
1984 1984-02-13 6.45 5,310
1985 1985-08-17 4.07 1,680
1986 1985-11-02 6.25 4,930
1987 1987-03-01 4.82 2,580
1988 1987-11-17 3.76 1,370
1989 1989-07-04 9.79 14,200
1990 1990-03-17 6.10 4,650
1991 1990-10-12 7.94 8,650
1992 1992-06-04 6.62 9,310
1993 1993-03-23 7.20 7,020
1994 1994-08-17 10.52 18,600
1995 1995-01-14 9.97 17,400
1996 1995-10-05 8.48 12,100
1997 1996-12-01 4.56 3,250
1998 1998-01-08 7.19 8,580
1999 1999-01-23 3.17 1,410
2000 2000-03-20 4.86 3,750
2001 2001-03-30 3.53 1,830
2002 2002-09-27 4.11 2,600
2003 2003-04-18 4.60 3,310
2004 2004-09-08 13.68 42,4009
2005 2005-01-14 4.78 3,060
2006 2005-11-29 5.30 4,060
2007 2007-01-01 3.93 1,710
2008 2008-08-27 6.15 5,220
2009 2009-01-07 3.92 1,700
2010 2010-01-25 5.91 4,560
2011 2011-04-16 6.61 6,130
2012 2011-11-29 6.09 4,930
2013 2013-05-06 8.82 13,000
2014 2013-12-23 4.34 1,990
2015 2015-04-19 6.38 5,590
2016 2016-02-03 5.77 4,270
2017 2017-05-05 4.87 2,710
2018 2018-09-17 7.23 7,740
2019 2018-10-11 7.22 7,700
2020 2020-01-11 6.16 4,670
2021 2021-08-18 7.74 8,110
?
  Peak Gage-Height Qualification Codes.
?
  Peak Streamflow Qualification Codes.